createdAt,value
2023-01-08T00:01:09.672Z,100132.56
2023-01-08T00:03:37.091Z,100129.84
2023-01-08T00:06:05.644Z,100135.81
2023-01-08T00:08:33.195Z,100133.66
2023-01-08T00:10:59.900Z,100130.09
2023-01-08T00:13:26.648Z,100136.09
2023-01-08T00:15:53.497Z,100127.38
2023-01-08T00:18:19.833Z,100124.41
2023-01-08T00:20:46.982Z,100121.13
2023-01-08T00:23:14.759Z,100116.78
2023-01-08T00:25:41.341Z,100121.13
2023-01-08T00:28:08.012Z,100124.66
2023-01-08T00:30:34.507Z,100114.31
2023-01-08T00:33:00.985Z,100107.53
2023-01-08T00:35:27.478Z,100106.47
2023-01-08T00:37:55.186Z,100116.25
2023-01-08T00:40:21.560Z,100098.84
2023-01-08T00:42:48.463Z,100097.47
2023-01-08T00:45:15.200Z,100096.91
2023-01-08T00:47:41.724Z,100090.66
2023-01-08T00:50:08.615Z,100098.81
2023-01-08T00:52:35.057Z,100091.50
2023-01-08T00:55:01.571Z,100093.38
2023-01-08T00:57:35.357Z,100087.97
2023-01-08T01:00:02.329Z,100088.22
2023-01-08T01:02:28.857Z,100078.72
2023-01-08T01:04:55.359Z,100074.34
2023-01-08T01:07:22.111Z,100077.63
2023-01-08T01:09:48.572Z,100076.53
2023-01-08T01:12:15.084Z,100068.94
2023-01-08T01:14:41.527Z,100079.28
2023-01-08T01:17:08.093Z,100082.53
2023-01-08T01:19:34.513Z,100085.78
2023-01-08T01:22:01.099Z,100086.34
2023-01-08T01:24:27.975Z,100091.50
2023-01-08T01:26:56.363Z,100083.06
2023-01-08T01:29:23.810Z,100077.38
2023-01-08T01:31:50.298Z,100076.81
2023-01-08T01:34:16.925Z,100081.16
2023-01-08T01:36:43.531Z,100083.34
2023-01-08T01:39:10.226Z,100085.00
2023-01-08T01:41:42.138Z,100083.06
2023-01-08T01:44:33.587Z,100086.31
2023-01-08T01:47:02.887Z,100091.22
2023-01-08T01:49:30.201Z,100090.13
2023-01-08T01:52:02.320Z,100091.22
2023-01-08T01:54:31.477Z,100084.69
2023-01-08T01:57:00.121Z,100078.72
2023-01-08T01:59:26.560Z,100078.97
2023-01-08T02:01:54.195Z,100074.09
2023-01-08T02:04:20.833Z,100071.38
2023-01-08T02:07:16.480Z,100060.22
2023-01-08T02:10:05.722Z,100065.66
2023-01-08T02:12:55.495Z,100075.44
2023-01-08T02:16:02.442Z,100058.84
2023-01-08T02:18:44.753Z,100050.13
2023-01-08T02:21:18.621Z,100049.56
2023-01-08T02:24:13.668Z,100043.88
2023-01-08T02:26:40.362Z,100034.31
2023-01-08T02:29:14.505Z,100027.50
2023-01-08T02:31:43.066Z,100022.34
2023-01-08T02:34:10.367Z,100008.22
2023-01-08T02:36:48.354Z,100009.56
2023-01-08T02:39:19.500Z,100005.47
2023-01-08T02:42:01.450Z,100001.41
2023-01-08T02:44:53.999Z,99998.13
2023-01-08T02:47:53.953Z,99983.44
2023-01-08T02:50:41.825Z,99989.41
2023-01-08T02:53:16.005Z,99981.25
2023-01-08T02:55:48.018Z,99970.66
2023-01-08T02:58:14.541Z,99973.34
2023-01-08T03:00:43.604Z,99966.59
2023-01-08T03:03:14.781Z,99968.22
2023-01-08T03:05:43.627Z,99966.59
2023-01-08T03:08:12.188Z,99959.78
2023-01-08T03:10:44.004Z,99957.91
2023-01-08T03:13:34.143Z,99969.31
2023-01-08T03:16:06.031Z,99964.66
2023-01-08T03:18:41.286Z,99966.00
2023-01-08T03:21:08.099Z,99959.75
2023-01-08T03:23:37.136Z,99965.19
2023-01-08T03:26:06.254Z,99951.88
2023-01-08T03:28:41.340Z,99965.44
2023-01-08T03:31:09.037Z,99956.78
2023-01-08T03:33:36.609Z,99958.94
2023-01-08T03:36:07.003Z,99955.13
2023-01-08T03:38:39.622Z,99954.03
2023-01-08T03:41:13.030Z,99945.88
2023-01-08T03:43:39.707Z,99956.72
2023-01-08T03:46:14.576Z,99956.44
2023-01-08T03:48:42.418Z,99958.59
2023-01-08T03:51:10.175Z,99956.19
2023-01-08T03:53:37.356Z,99958.38
2023-01-08T03:56:04.363Z,99956.97
2023-01-08T03:58:30.860Z,99954.00
2023-01-08T04:00:57.465Z,99949.09
2023-01-08T04:03:24.718Z,99944.47
2023-01-08T04:05:51.167Z,99948.00
2023-01-08T04:08:17.682Z,99945.28
2023-01-08T04:10:44.064Z,99940.09
2023-01-08T04:13:10.525Z,99941.78
2023-01-08T04:15:36.990Z,99936.88
2023-01-08T04:18:03.570Z,99931.75
2023-01-08T04:20:29.938Z,99926.84
2023-01-08T04:22:56.309Z,99926.84
2023-01-08T04:25:22.776Z,99916.81
2023-01-08T04:27:49.156Z,99924.69
2023-01-08T04:30:15.680Z,99907.84
2023-01-08T04:32:42.156Z,99908.38
2023-01-08T04:35:08.960Z,99910.00
2023-01-08T04:37:35.509Z,99907.25
2023-01-08T04:40:01.885Z,99919.47
2023-01-08T04:42:28.314Z,99917.81
2023-01-08T04:44:54.828Z,99917.00
2023-01-08T04:47:21.251Z,99919.19
2023-01-08T04:49:47.822Z,99914.88
2023-01-08T04:52:14.210Z,99905.91
2023-01-08T04:54:40.702Z,99918.69
2023-01-08T04:57:07.670Z,99914.88
2023-01-08T04:59:34.099Z,99918.69
2023-01-08T05:02:06.463Z,99915.16
2023-01-08T05:04:32.993Z,99913.28
2023-01-08T05:06:59.691Z,99909.44
2023-01-08T05:09:26.328Z,99900.53
2023-01-08T05:11:52.933Z,99893.16
2023-01-08T05:14:19.346Z,99895.63
2023-01-08T05:16:45.843Z,99900.22
2023-01-08T05:19:12.441Z,99891.00
2023-01-08T05:21:39.206Z,99879.06
2023-01-08T05:24:06.029Z,99879.09
2023-01-08T05:26:32.833Z,99879.63
2023-01-08T05:28:59.281Z,99872.28
2023-01-08T05:31:26.149Z,99871.41
2023-01-08T05:33:52.934Z,99885.78
2023-01-08T05:36:19.413Z,99875.75
2023-01-08T05:38:45.831Z,99889.09
2023-01-08T05:41:12.898Z,99885.00
2023-01-08T05:43:39.293Z,99892.63
2023-01-08T05:46:06.332Z,99895.28
2023-01-08T05:48:35.207Z,99903.47
2023-01-08T05:51:02.573Z,99886.91
2023-01-08T05:53:29.128Z,99905.63
2023-01-08T05:56:03.654Z,99893.69
2023-01-08T05:58:30.311Z,99894.78
2023-01-08T06:01:06.702Z,99885.31
2023-01-08T06:03:33.159Z,99888.28
2023-01-08T06:06:01.314Z,99889.09
2023-01-08T06:08:28.864Z,99884.47
2023-01-08T06:10:59.774Z,99889.09
2023-01-08T06:13:26.764Z,99886.91
2023-01-08T06:15:53.247Z,99894.72
2023-01-08T06:18:19.824Z,99885.72
2023-01-08T06:20:47.153Z,99884.34
2023-01-08T06:23:13.512Z,99884.91
2023-01-08T06:25:39.973Z,99888.44
2023-01-08T06:28:06.537Z,99889.22
2023-01-08T06:30:32.922Z,99892.22
2023-01-08T06:33:01.008Z,99888.78
2023-01-08T06:35:27.999Z,99885.50
2023-01-08T06:37:55.783Z,99888.19
2023-01-08T06:40:23.133Z,99886.03
2023-01-08T06:42:49.692Z,99891.41
2023-01-08T06:45:16.356Z,99891.22
2023-01-08T06:47:42.830Z,99895.84
2023-01-08T06:50:09.612Z,99891.50
2023-01-08T06:52:36.023Z,99879.75
2023-01-08T06:55:02.425Z,99891.44
2023-01-08T06:57:28.892Z,99889.88
2023-01-08T06:59:55.510Z,99887.41
2023-01-08T07:02:24.691Z,99898.03
2023-01-08T07:04:51.920Z,99895.88
2023-01-08T07:07:18.356Z,99895.31
2023-01-08T07:09:44.963Z,99904.00
2023-01-08T07:12:13.472Z,99901.31
2023-01-08T07:14:40.614Z,99902.13
2023-01-08T07:17:07.699Z,99898.63
2023-01-08T07:19:34.787Z,99915.19
2023-01-08T07:22:01.567Z,99931.75
2023-01-08T07:24:28.413Z,99945.81
2023-01-08T07:26:54.923Z,99953.94
2023-01-08T07:29:21.336Z,99946.88
2023-01-08T07:31:47.832Z,99937.09
2023-01-08T07:34:15.387Z,99953.88
2023-01-08T07:36:41.876Z,99946.53
2023-01-08T07:39:08.395Z,99944.69
2023-01-08T07:41:34.799Z,99947.94
2023-01-08T07:44:01.457Z,99944.69
2023-01-08T07:46:28.150Z,99948.44
2023-01-08T07:48:56.206Z,99945.16
2023-01-08T07:51:23.063Z,99940.81
2023-01-08T07:53:51.203Z,99947.28
2023-01-08T07:56:17.677Z,99941.91
2023-01-08T07:58:44.091Z,99931.88
2023-01-08T08:01:12.024Z,99941.41
2023-01-08T08:03:39.206Z,99940.88
2023-01-08T08:06:06.101Z,99931.13
2023-01-08T08:08:32.492Z,99936.31
2023-01-08T08:10:59.096Z,99922.47
2023-01-08T08:13:25.590Z,99927.63
2023-01-08T08:15:52.253Z,99929.50
2023-01-08T08:18:18.784Z,99922.97
2023-01-08T08:20:45.171Z,99919.19
2023-01-08T08:23:13.955Z,99935.22
2023-01-08T08:25:41.934Z,99926.25
2023-01-08T08:28:11.156Z,99927.31
2023-01-08T08:30:40.648Z,99927.84
2023-01-08T08:33:08.616Z,99929.72
2023-01-08T08:35:35.916Z,99921.38
2023-01-08T08:38:02.809Z,99924.88
2023-01-08T08:40:29.279Z,99920.81
2023-01-08T08:42:57.731Z,99914.28
2023-01-08T08:45:24.278Z,99907.41
2023-01-08T08:47:51.044Z,99904.44
2023-01-08T08:50:17.981Z,99909.81
2023-01-08T08:52:45.860Z,99905.25
2023-01-08T08:55:18.785Z,99903.28
2023-01-08T08:57:46.639Z,99900.53
2023-01-08T09:00:14.354Z,99897.28
2023-01-08T09:02:41.130Z,99897.78
2023-01-08T09:05:08.299Z,99896.22
2023-01-08T09:07:34.743Z,99899.19
2023-01-08T09:10:01.139Z,99895.16
2023-01-08T09:12:27.792Z,99890.84
2023-01-08T09:14:54.864Z,99895.75
2023-01-08T09:17:21.557Z,99893.53
2023-01-08T09:19:48.077Z,99881.59
2023-01-08T09:22:14.505Z,99872.34
2023-01-08T09:24:40.975Z,99878.88
2023-01-08T09:27:09.033Z,99881.88
2023-01-08T09:29:36.634Z,99880.53
2023-01-08T09:32:07.298Z,99880.84
2023-01-08T09:34:36.030Z,99882.28
2023-01-08T09:37:03.599Z,99880.66
2023-01-08T09:39:30.239Z,99878.41
2023-01-08T09:41:58.793Z,99885.00
2023-01-08T09:44:30.377Z,99879.81
2023-01-08T09:46:58.308Z,99883.34
2023-01-08T09:49:32.367Z,99882.31
2023-01-08T09:51:59.202Z,99881.53
2023-01-08T09:54:26.427Z,99880.13
2023-01-08T09:56:53.617Z,99879.03
2023-01-08T09:59:20.705Z,99880.06
2023-01-08T10:01:48.063Z,99869.75
2023-01-08T10:04:23.518Z,99874.69
2023-01-08T10:07:00.166Z,99869.25
2023-01-08T10:09:32.163Z,99863.84
2023-01-08T10:12:02.516Z,99854.03
2023-01-08T10:14:32.979Z,99854.59
2023-01-08T10:17:14.498Z,99855.97
2023-01-08T10:19:40.963Z,99842.72
2023-01-08T10:22:17.832Z,99841.09
2023-01-08T10:24:44.550Z,99837.34
2023-01-08T10:27:17.120Z,99821.31
2023-01-08T10:29:44.354Z,99824.81
2023-01-08T10:32:15.454Z,99816.69
2023-01-08T10:34:44.131Z,99808.81
2023-01-08T10:37:16.444Z,99804.38
2023-01-08T10:39:47.425Z,99803.00
2023-01-08T10:42:17.726Z,99806.25
2023-01-08T10:45:02.821Z,99799.69
2023-01-08T10:47:33.914Z,99806.25
2023-01-08T10:50:02.847Z,99802.44
2023-01-08T10:52:32.999Z,99801.59
2023-01-08T10:55:27.541Z,99789.41
2023-01-08T10:58:09.138Z,99792.06
2023-01-08T11:00:36.923Z,99783.06
2023-01-08T11:03:10.067Z,99773.53
2023-01-08T11:05:39.148Z,99769.19
2023-01-08T11:08:07.647Z,99769.78
2023-01-08T11:10:36.711Z,99768.13
2023-01-08T11:13:07.155Z,99754.00
2023-01-08T11:15:38.167Z,99769.25
2023-01-08T11:18:20.777Z,99748.03
2023-01-08T11:20:48.513Z,99754.56
2023-01-08T11:23:18.537Z,99751.28
2023-01-08T11:25:51.069Z,99745.84
2023-01-08T11:28:27.570Z,99743.66
2023-01-08T11:31:02.991Z,99747.50
2023-01-08T11:33:34.493Z,99743.13
2023-01-08T11:36:10.381Z,99739.81
2023-01-08T11:38:37.017Z,99719.16
2023-01-08T11:41:25.586Z,99728.41
2023-01-08T11:44:20.374Z,99728.88
2023-01-08T11:46:56.025Z,99714.69
2023-01-08T11:49:38.133Z,99703.88
2023-01-08T11:52:41.359Z,99703.28
2023-01-08T11:55:26.230Z,99699.03
2023-01-08T11:58:23.011Z,99688.41
2023-01-08T12:01:01.527Z,99681.56
2023-01-08T12:03:36.791Z,99662.59
2023-01-08T12:06:47.777Z,99660.94
2023-01-08T12:09:56.856Z,99666.94
2023-01-08T12:12:46.949Z,99662.03
2023-01-08T12:15:26.532Z,99670.19
2023-01-08T12:18:05.281Z,99664.47
2023-01-08T12:20:49.468Z,99674.03
2023-01-08T12:23:38.363Z,99682.78
2023-01-08T12:26:30.405Z,99680.19
2023-01-08T12:29:15.627Z,99665.56
2023-01-08T12:32:17.127Z,99671.78
2023-01-08T12:34:47.279Z,99662.84
2023-01-08T12:37:35.055Z,99680.00
2023-01-08T12:40:10.711Z,99670.53
2023-01-08T12:42:46.960Z,99673.56
2023-01-08T12:45:20.345Z,99660.78
2023-01-08T12:47:54.716Z,99648.59
2023-01-08T12:50:32.834Z,99668.69
2023-01-08T12:53:08.067Z,99658.09
2023-01-08T12:56:08.451Z,99656.19
2023-01-08T12:58:50.329Z,99647.22
2023-01-08T13:01:33.571Z,99665.13
2023-01-08T13:04:01.426Z,99652.38
2023-01-08T13:06:27.969Z,99645.03
2023-01-08T13:08:56.142Z,99652.63
2023-01-08T13:11:29.315Z,99653.16
2023-01-08T13:14:03.430Z,99646.31
2023-01-08T13:16:31.864Z,99641.41
2023-01-08T13:19:00.554Z,99642.22
2023-01-08T13:21:43.544Z,99644.94
2023-01-08T13:24:33.187Z,99634.91
2023-01-08T13:27:28.310Z,99631.09
2023-01-08T13:29:57.979Z,99631.09
2023-01-08T13:32:47.823Z,99625.38
2023-01-08T13:35:14.264Z,99609.06
2023-01-08T13:37:41.774Z,99609.06
2023-01-08T13:40:36.313Z,99611.22
2023-01-08T13:43:06.449Z,99610.16
2023-01-08T13:45:33.520Z,99618.81
2023-01-08T13:48:00.299Z,99609.31
2023-01-08T13:50:28.753Z,99603.88
2023-01-08T13:53:03.269Z,99612.28
2023-01-08T13:55:38.458Z,99605.50
2023-01-08T13:58:15.295Z,99607.63
2023-01-08T14:00:41.618Z,99601.78
2023-01-08T14:03:28.121Z,99598.38
2023-01-08T14:06:13.203Z,99598.44
2023-01-08T14:08:52.667Z,99595.94
2023-01-08T14:11:20.710Z,99579.16
2023-01-08T14:13:47.890Z,99591.69
2023-01-08T14:16:16.078Z,99581.84
2023-01-08T14:18:46.666Z,99579.47
2023-01-08T14:21:15.296Z,99581.09
2023-01-08T14:23:45.935Z,99571.13
2023-01-08T14:26:24.545Z,99566.31
2023-01-08T14:28:52.879Z,99563.69
2023-01-08T14:31:25.102Z,99556.69
2023-01-08T14:33:53.292Z,99557.53
2023-01-08T14:36:20.923Z,99543.53
2023-01-08T14:38:50.938Z,99559.88
2023-01-08T14:41:21.624Z,99550.06
2023-01-08T14:43:50.051Z,99552.59
2023-01-08T14:46:25.050Z,99555.31
2023-01-08T14:48:54.450Z,99552.41
2023-01-08T14:51:24.644Z,99557.56
2023-01-08T14:53:55.969Z,99560.56
2023-01-08T14:56:26.280Z,99560.03
2023-01-08T14:58:55.501Z,99550.75
2023-01-08T15:01:25.922Z,99544.25
2023-01-08T15:04:05.845Z,99546.72
2023-01-08T15:06:33.756Z,99543.47
2023-01-08T15:09:00.674Z,99542.09
2023-01-08T15:11:31.210Z,99546.44
2023-01-08T15:13:58.237Z,99555.72
2023-01-08T15:16:27.953Z,99547.03
2023-01-08T15:19:03.948Z,99540.47
2023-01-08T15:21:30.671Z,99540.50
2023-01-08T15:24:00.412Z,99536.16
2023-01-08T15:26:27.801Z,99538.63
2023-01-08T15:29:01.549Z,99540.53
2023-01-08T15:31:40.170Z,99536.72
2023-01-08T15:34:25.958Z,99529.72
2023-01-08T15:36:52.498Z,99538.16
2023-01-08T15:39:19.164Z,99533.00
2023-01-08T15:42:04.285Z,99529.72
2023-01-08T15:44:30.723Z,99531.34
2023-01-08T15:46:57.103Z,99518.03
2023-01-08T15:49:23.715Z,99509.09
2023-01-08T15:51:51.973Z,99521.09
2023-01-08T15:54:21.218Z,99523.84
2023-01-08T15:56:47.648Z,99520.34
2023-01-08T15:59:14.106Z,99518.97
2023-01-08T16:01:40.539Z,99523.66
2023-01-08T16:04:07.072Z,99521.78
2023-01-08T16:06:33.602Z,99525.06
2023-01-08T16:09:01.771Z,99526.69
2023-01-08T16:11:28.259Z,99529.97
2023-01-08T16:13:54.733Z,99520.22
2023-01-08T16:16:21.435Z,99527.28
2023-01-08T16:18:48.076Z,99512.91
2023-01-08T16:21:14.495Z,99516.47
2023-01-08T16:23:41.211Z,99520.50
2023-01-08T16:26:10.575Z,99518.63
2023-01-08T16:28:37.248Z,99515.13
2023-01-08T16:31:04.211Z,99517.56
2023-01-08T16:33:31.177Z,99511.34
2023-01-08T16:36:02.815Z,99507.03
2023-01-08T16:38:29.563Z,99493.47
2023-01-08T16:40:59.625Z,99498.06
2023-01-08T16:43:28.493Z,99498.09
2023-01-08T16:45:55.214Z,99494.28
2023-01-08T16:48:22.652Z,99494.56
2023-01-08T16:50:49.492Z,99493.75
2023-01-08T16:53:17.627Z,99498.06
2023-01-08T16:55:44.124Z,99483.19
2023-01-08T16:58:10.634Z,99489.41
2023-01-08T17:00:38.194Z,99478.00
2023-01-08T17:03:05.403Z,99470.94
2023-01-08T17:05:32.522Z,99470.97
2023-01-08T17:07:58.996Z,99473.16
2023-01-08T17:10:26.210Z,99476.41
2023-01-08T17:12:52.750Z,99471.25
2023-01-08T17:15:19.267Z,99465.59
2023-01-08T17:17:45.616Z,99463.94
2023-01-08T17:20:12.287Z,99458.00
2023-01-08T17:22:38.739Z,99450.94
2023-01-08T17:25:05.638Z,99443.88
2023-01-08T17:27:35.293Z,99444.19
2023-01-08T17:30:01.993Z,99444.44
2023-01-08T17:32:32.093Z,99443.66
2023-01-08T17:34:58.573Z,99447.69
2023-01-08T17:37:24.982Z,99453.94
2023-01-08T17:39:51.546Z,99454.72
2023-01-08T17:42:28.191Z,99453.13
2023-01-08T17:44:57.435Z,99446.34
2023-01-08T17:47:25.582Z,99450.38
2023-01-08T17:49:53.464Z,99446.06
2023-01-08T17:52:21.184Z,99438.47
2023-01-08T17:54:49.601Z,99443.91
2023-01-08T17:57:17.204Z,99433.00
2023-01-08T17:59:44.553Z,99429.50
2023-01-08T18:02:15.726Z,99429.22
2023-01-08T18:04:43.756Z,99424.91
2023-01-08T18:07:10.165Z,99428.16
2023-01-08T18:09:36.929Z,99424.63
2023-01-08T18:12:03.588Z,99421.38
2023-01-08T18:14:30.071Z,99410.81
2023-01-08T18:16:56.914Z,99407.59
2023-01-08T18:19:24.850Z,99404.34
2023-01-08T18:21:51.261Z,99400.81
2023-01-08T18:24:18.049Z,99402.72
2023-01-08T18:26:46.460Z,99398.94
2023-01-08T18:29:12.932Z,99393.50
2023-01-08T18:31:39.516Z,99398.94
2023-01-08T18:34:05.960Z,99392.41
2023-01-08T18:36:32.638Z,99386.72
2023-01-08T18:39:00.255Z,99391.34
2023-01-08T18:41:56.136Z,99387.84
2023-01-08T18:44:23.452Z,99385.41
2023-01-08T18:46:49.901Z,99389.22
2023-01-08T18:49:16.793Z,99374.03
2023-01-08T18:51:43.258Z,99382.16
2023-01-08T18:54:11.276Z,99377.84
2023-01-08T18:56:37.825Z,99371.88
2023-01-08T18:59:06.390Z,99376.75
2023-01-08T19:01:35.088Z,99372.16
2023-01-08T19:04:02.048Z,99359.69
2023-01-08T19:06:28.405Z,99363.22
2023-01-08T19:08:56.993Z,99358.34
2023-01-08T19:11:24.408Z,99353.47
2023-01-08T19:13:54.303Z,99355.66
2023-01-08T19:16:20.956Z,99348.06
2023-01-08T19:18:47.359Z,99332.91
2023-01-08T19:21:18.979Z,99335.88
2023-01-08T19:23:47.151Z,99330.19
2023-01-08T19:26:14.633Z,99327.47
2023-01-08T19:28:42.246Z,99327.19
2023-01-08T19:31:12.371Z,99318.53
2023-01-08T19:33:39.238Z,99317.44
2023-01-08T19:36:18.518Z,99308.00
2023-01-08T19:38:45.871Z,99303.09
2023-01-08T19:41:31.357Z,99299.31
2023-01-08T19:43:58.883Z,99293.88
2023-01-08T19:46:26.115Z,99280.88
2023-01-08T19:48:52.870Z,99281.16
2023-01-08T19:51:19.586Z,99288.47
2023-01-08T19:53:46.016Z,99278.19
2023-01-08T19:56:14.087Z,99275.47
2023-01-08T19:58:40.854Z,99279.25
2023-01-08T20:01:22.741Z,99269.47
2023-01-08T20:03:49.763Z,99267.03
2023-01-08T20:06:19.826Z,99259.72
2023-01-08T20:08:53.125Z,99257.56
2023-01-08T20:11:21.179Z,99259.22
2023-01-08T20:13:47.824Z,99247.28
2023-01-08T20:16:16.763Z,99247.53
2023-01-08T20:18:43.757Z,99235.59
2023-01-08T20:21:11.500Z,99242.94
2023-01-08T20:23:38.764Z,99233.69
2023-01-08T20:26:08.040Z,99234.25
2023-01-08T20:28:36.179Z,99229.91
2023-01-08T20:31:07.791Z,99224.75
2023-01-08T20:33:35.361Z,99220.41
2023-01-08T20:36:07.571Z,99217.97
2023-01-08T20:38:34.411Z,99222.84
2023-01-08T20:41:00.777Z,99215.25
2023-01-08T20:43:27.222Z,99220.69
2023-01-08T20:45:53.859Z,99217.38
2023-01-08T20:48:20.489Z,99206.50
2023-01-08T20:50:55.499Z,99203.25
2023-01-08T20:53:22.245Z,99204.31
2023-01-08T20:55:49.101Z,99199.94
2023-01-08T20:58:15.581Z,99197.78
2023-01-08T21:00:42.044Z,99196.66
2023-01-08T21:03:08.472Z,99187.97
2023-01-08T21:05:38.406Z,99191.22
2023-01-08T21:08:07.825Z,99185.25
2023-01-08T21:10:34.972Z,99180.38
2023-01-08T21:13:01.527Z,99180.38
2023-01-08T21:15:28.047Z,99172.78
2023-01-08T21:17:54.422Z,99174.94
2023-01-08T21:20:20.899Z,99169.50
2023-01-08T21:22:47.425Z,99163.25
2023-01-08T21:25:13.915Z,99161.38
2023-01-08T21:27:40.643Z,99146.72
2023-01-08T21:30:08.019Z,99149.41
2023-01-08T21:32:35.706Z,99145.09
2023-01-08T21:35:02.046Z,99140.22
2023-01-08T21:37:30.268Z,99136.97
2023-01-08T21:39:56.594Z,99132.63
2023-01-08T21:42:41.642Z,99128.00
2023-01-08T21:45:27.171Z,99117.16
2023-01-08T21:47:54.590Z,99118.00
2023-01-08T21:50:22.670Z,99113.09
2023-01-08T21:53:07.988Z,99097.97
2023-01-08T21:55:35.033Z,99097.94
2023-01-08T21:58:01.427Z,99095.53
2023-01-08T22:00:28.386Z,99099.56
2023-01-08T22:02:55.006Z,99090.88
2023-01-08T22:05:21.483Z,99076.25
2023-01-08T22:07:47.929Z,99081.34
2023-01-08T22:10:14.494Z,99069.13
2023-01-08T22:12:41.678Z,99067.53
2023-01-08T22:15:09.715Z,99069.13
2023-01-08T22:17:36.587Z,99062.03
2023-01-08T22:20:06.594Z,99056.59
2023-01-08T22:22:32.922Z,99050.63
2023-01-08T22:24:59.346Z,99045.75
2023-01-08T22:27:26.146Z,99048.38
2023-01-08T22:29:52.702Z,99040.88
2023-01-08T22:32:19.099Z,99046.03
2023-01-08T22:34:45.683Z,99043.41
2023-01-08T22:37:12.052Z,99041.53
2023-01-08T22:39:38.635Z,99036.09
2023-01-08T22:42:05.192Z,99032.66
2023-01-08T22:44:31.679Z,99043.84
2023-01-08T22:47:00.096Z,99038.97
2023-01-08T22:49:26.576Z,99041.72
2023-01-08T22:51:53.148Z,99042.31
2023-01-08T22:54:19.759Z,99045.09
2023-01-08T22:56:46.128Z,99041.59
2023-01-08T22:59:12.657Z,99041.34
2023-01-08T23:01:39.177Z,99044.06
2023-01-08T23:04:06.033Z,99050.06
2023-01-08T23:06:32.819Z,99046.59
2023-01-08T23:08:59.323Z,99047.13
2023-01-08T23:11:26.536Z,99049.03
2023-01-08T23:13:53.132Z,99047.97
2023-01-08T23:16:24.657Z,99059.94
2023-01-08T23:18:51.955Z,99055.63
2023-01-08T23:21:21.948Z,99054.25
2023-01-08T23:23:48.827Z,99052.34
2023-01-08T23:26:22.578Z,99056.69
2023-01-08T23:28:50.315Z,99054.28
2023-01-08T23:31:20.772Z,99058.06
2023-01-08T23:33:47.512Z,99064.88
2023-01-08T23:36:18.316Z,99062.16
2023-01-08T23:38:46.226Z,99052.41
2023-01-08T23:41:13.033Z,99057.88
2023-01-08T23:43:39.795Z,99064.88
2023-01-08T23:46:06.614Z,99063.28
2023-01-08T23:48:33.697Z,99073.56
2023-01-08T23:51:00.134Z,99060.56
2023-01-08T23:53:28.268Z,99068.38
2023-01-08T23:55:54.632Z,99067.63
2023-01-08T23:58:21.717Z,99069.81
